sensor_id;sensor_type;location;lat;lon;timestamp;P1;durP1;ratioP1;P2;durP2;ratioP2
17852;SDS011;9052;53.494;14.376;2024-01-30T00:00:27;11.93;;;5.37;;
17852;SDS011;9052;53.494;14.376;2024-01-30T00:02:54;7.20;;;5.40;;
17852;SDS011;9052;53.494;14.376;2024-01-30T00:05:21;14.73;;;5.30;;
17852;SDS011;9052;53.494;14.376;2024-01-30T00:07:48;9.47;;;5.00;;
17852;SDS011;9052;53.494;14.376;2024-01-30T00:10:15;8.77;;;4.90;;
17852;SDS011;9052;53.494;14.376;2024-01-30T00:12:44;14.10;;;5.53;;
17852;SDS011;9052;53.494;14.376;2024-01-30T00:15:11;12.20;;;5.10;;
17852;SDS011;9052;53.494;14.376;2024-01-30T00:17:38;8.53;;;5.10;;
17852;SDS011;9052;53.494;14.376;2024-01-30T00:20:05;14.53;;;6.13;;
17852;SDS011;9052;53.494;14.376;2024-01-30T00:22:34;14.47;;;6.07;;
17852;SDS011;9052;53.494;14.376;2024-01-30T00:25:01;8.33;;;5.60;;
17852;SDS011;9052;53.494;14.376;2024-01-30T00:27:28;6.83;;;5.50;;
17852;SDS011;9052;53.494;14.376;2024-01-30T00:29:56;8.37;;;5.50;;
17852;SDS011;9052;53.494;14.376;2024-01-30T00:32:23;8.13;;;5.90;;
17852;SDS011;9052;53.494;14.376;2024-01-30T00:34:50;11.93;;;6.70;;
17852;SDS011;9052;53.494;14.376;2024-01-30T00:37:17;10.27;;;6.17;;
17852;SDS011;9052;53.494;14.376;2024-01-30T00:39:44;9.57;;;5.30;;
17852;SDS011;9052;53.494;14.376;2024-01-30T00:42:11;10.73;;;5.00;;
17852;SDS011;9052;53.494;14.376;2024-01-30T00:44:38;8.90;;;6.23;;
17852;SDS011;9052;53.494;14.376;2024-01-30T00:47:07;10.07;;;5.77;;
17852;SDS011;9052;53.494;14.376;2024-01-30T00:49:33;5.80;;;5.23;;
17852;SDS011;9052;53.494;14.376;2024-01-30T00:52:00;9.17;;;6.00;;
17852;SDS011;9052;53.494;14.376;2024-01-30T00:54:28;7.40;;;5.77;;
17852;SDS011;9052;53.494;14.376;2024-01-30T00:56:55;6.57;;;4.13;;
17852;SDS011;9052;53.494;14.376;2024-01-30T00:59:22;9.73;;;5.93;;
17852;SDS011;9052;53.494;14.376;2024-01-30T01:01:50;18.10;;;5.77;;
17852;SDS011;9052;53.494;14.376;2024-01-30T01:04:18;15.70;;;6.37;;
17852;SDS011;9052;53.494;14.376;2024-01-30T01:06:46;9.93;;;5.33;;
17852;SDS011;9052;53.494;14.376;2024-01-30T01:09:13;9.60;;;6.00;;
17852;SDS011;9052;53.494;14.376;2024-01-30T01:11:40;11.33;;;5.63;;
17852;SDS011;9052;53.494;14.376;2024-01-30T01:14:07;6.80;;;5.00;;
17852;SDS011;9052;53.494;14.376;2024-01-30T01:16:34;7.67;;;5.30;;
17852;SDS011;9052;53.494;14.376;2024-01-30T01:19:01;5.77;;;4.53;;
17852;SDS011;9052;53.494;14.376;2024-01-30T01:21:30;8.00;;;6.23;;
17852;SDS011;9052;53.494;14.376;2024-01-30T01:23:57;12.53;;;5.10;;
17852;SDS011;9052;53.494;14.376;2024-01-30T01:26:24;9.03;;;5.60;;
17852;SDS011;9052;53.494;14.376;2024-01-30T01:28:51;10.20;;;4.00;;
17852;SDS011;9052;53.494;14.376;2024-01-30T01:31:17;6.40;;;4.90;;
17852;SDS011;9052;53.494;14.376;2024-01-30T01:33:47;18.00;;;6.80;;
17852;SDS011;9052;53.494;14.376;2024-01-30T01:36:14;8.73;;;4.37;;
17852;SDS011;9052;53.494;14.376;2024-01-30T01:38:43;7.20;;;4.37;;
17852;SDS011;9052;53.494;14.376;2024-01-30T01:41:10;6.23;;;3.80;;
17852;SDS011;9052;53.494;14.376;2024-01-30T01:43:37;5.53;;;3.80;;
17852;SDS011;9052;53.494;14.376;2024-01-30T01:46:04;11.17;;;3.97;;
17852;SDS011;9052;53.494;14.376;2024-01-30T01:48:31;23.03;;;4.73;;
17852;SDS011;9052;53.494;14.376;2024-01-30T01:50:59;7.40;;;4.07;;
17852;SDS011;9052;53.494;14.376;2024-01-30T01:53:26;7.13;;;4.60;;
17852;SDS011;9052;53.494;14.376;2024-01-30T01:55:54;4.17;;;3.80;;
17852;SDS011;9052;53.494;14.376;2024-01-30T01:58:21;4.73;;;3.03;;
17852;SDS011;9052;53.494;14.376;2024-01-30T02:00:49;11.03;;;4.27;;
17852;SDS011;9052;53.494;14.376;2024-01-30T02:03:17;4.50;;;3.60;;
17852;SDS011;9052;53.494;14.376;2024-01-30T02:05:46;4.70;;;3.67;;
17852;SDS011;9052;53.494;14.376;2024-01-30T02:08:13;13.20;;;4.20;;
17852;SDS011;9052;53.494;14.376;2024-01-30T02:10:40;7.10;;;3.70;;
17852;SDS011;9052;53.494;14.376;2024-01-30T02:13:08;6.20;;;3.90;;
17852;SDS011;9052;53.494;14.376;2024-01-30T02:15:35;4.40;;;4.00;;
17852;SDS011;9052;53.494;14.376;2024-01-30T02:18:02;7.50;;;4.10;;
17852;SDS011;9052;53.494;14.376;2024-01-30T02:20:30;6.03;;;4.13;;
17852;SDS011;9052;53.494;14.376;2024-01-30T02:22:58;7.03;;;4.53;;
17852;SDS011;9052;53.494;14.376;2024-01-30T02:25:30;5.30;;;3.63;;
17852;SDS011;9052;53.494;14.376;2024-01-30T02:27:58;8.13;;;4.30;;
17852;SDS011;9052;53.494;14.376;2024-01-30T02:30:24;6.10;;;4.30;;
17852;SDS011;9052;53.494;14.376;2024-01-30T02:32:51;6.60;;;3.27;;
17852;SDS011;9052;53.494;14.376;2024-01-30T02:35:18;4.03;;;3.70;;
17852;SDS011;9052;53.494;14.376;2024-01-30T02:37:45;5.90;;;4.17;;
17852;SDS011;9052;53.494;14.376;2024-01-30T02:40:14;7.83;;;4.87;;
17852;SDS011;9052;53.494;14.376;2024-01-30T02:42:41;4.83;;;3.53;;
17852;SDS011;9052;53.494;14.376;2024-01-30T02:45:09;19.13;;;3.90;;
17852;SDS011;9052;53.494;14.376;2024-01-30T02:47:37;3.90;;;3.60;;
17852;SDS011;9052;53.494;14.376;2024-01-30T02:50:05;7.10;;;4.63;;
17852;SDS011;9052;53.494;14.376;2024-01-30T02:52:32;7.53;;;4.23;;
17852;SDS011;9052;53.494;14.376;2024-01-30T02:54:59;6.50;;;4.30;;
17852;SDS011;9052;53.494;14.376;2024-01-30T02:57:28;4.50;;;4.10;;
17852;SDS011;9052;53.494;14.376;2024-01-30T02:59:55;12.80;;;4.43;;
17852;SDS011;9052;53.494;14.376;2024-01-30T03:02:22;5.47;;;4.47;;
17852;SDS011;9052;53.494;14.376;2024-01-30T03:04:49;5.93;;;3.90;;
17852;SDS011;9052;53.494;14.376;2024-01-30T03:07:16;5.07;;;4.50;;
17852;SDS011;9052;53.494;14.376;2024-01-30T03:09:43;6.90;;;4.53;;
17852;SDS011;9052;53.494;14.376;2024-01-30T03:12:10;12.80;;;4.30;;
17852;SDS011;9052;53.494;14.376;2024-01-30T03:14:39;11.60;;;5.40;;
17852;SDS011;9052;53.494;14.376;2024-01-30T03:17:06;5.30;;;4.53;;
17852;SDS011;9052;53.494;14.376;2024-01-30T03:19:32;5.80;;;4.13;;
17852;SDS011;9052;53.494;14.376;2024-01-30T03:21:59;11.53;;;4.10;;
17852;SDS011;9052;53.494;14.376;2024-01-30T03:24:26;4.93;;;3.63;;
17852;SDS011;9052;53.494;14.376;2024-01-30T03:26:53;10.43;;;5.10;;
17852;SDS011;9052;53.494;14.376;2024-01-30T03:29:20;3.60;;;3.30;;
17852;SDS011;9052;53.494;14.376;2024-01-30T03:31:49;4.27;;;3.43;;
17852;SDS011;9052;53.494;14.376;2024-01-30T03:34:18;5.47;;;4.30;;
17852;SDS011;9052;53.494;14.376;2024-01-30T03:36:45;5.27;;;4.77;;
17852;SDS011;9052;53.494;14.376;2024-01-30T03:39:12;14.20;;;4.30;;
17852;SDS011;9052;53.494;14.376;2024-01-30T03:41:41;8.33;;;4.80;;
17852;SDS011;9052;53.494;14.376;2024-01-30T03:44:09;6.97;;;4.23;;
17852;SDS011;9052;53.494;14.376;2024-01-30T03:46:36;6.33;;;4.70;;
17852;SDS011;9052;53.494;14.376;2024-01-30T03:49:05;15.33;;;4.90;;
17852;SDS011;9052;53.494;14.376;2024-01-30T03:51:32;6.83;;;4.30;;
17852;SDS011;9052;53.494;14.376;2024-01-30T03:53:59;4.73;;;4.27;;
17852;SDS011;9052;53.494;14.376;2024-01-30T03:56:26;13.80;;;4.03;;
17852;SDS011;9052;53.494;14.376;2024-01-30T03:58:53;4.67;;;4.27;;
17852;SDS011;9052;53.494;14.376;2024-01-30T04:01:21;7.70;;;4.47;;
17852;SDS011;9052;53.494;14.376;2024-01-30T04:03:48;7.27;;;4.27;;
17852;SDS011;9052;53.494;14.376;2024-01-30T04:06:16;10.57;;;4.60;;
17852;SDS011;9052;53.494;14.376;2024-01-30T04:08:43;13.43;;;4.70;;
17852;SDS011;9052;53.494;14.376;2024-01-30T04:11:10;12.43;;;4.70;;
17852;SDS011;9052;53.494;14.376;2024-01-30T04:13:37;8.57;;;4.30;;
17852;SDS011;9052;53.494;14.376;2024-01-30T04:16:04;5.30;;;4.20;;
17852;SDS011;9052;53.494;14.376;2024-01-30T04:18:32;5.80;;;4.57;;
17852;SDS011;9052;53.494;14.376;2024-01-30T04:20:59;4.03;;;3.70;;
17852;SDS011;9052;53.494;14.376;2024-01-30T04:23:27;6.53;;;3.90;;
17852;SDS011;9052;53.494;14.376;2024-01-30T04:25:54;5.43;;;4.00;;
17852;SDS011;9052;53.494;14.376;2024-01-30T04:28:21;4.70;;;4.07;;
17852;SDS011;9052;53.494;14.376;2024-01-30T04:30:48;5.07;;;4.30;;
17852;SDS011;9052;53.494;14.376;2024-01-30T04:33:15;12.57;;;4.90;;
17852;SDS011;9052;53.494;14.376;2024-01-30T04:35:43;9.77;;;4.93;;
17852;SDS011;9052;53.494;14.376;2024-01-30T04:38:10;13.60;;;4.97;;
17852;SDS011;9052;53.494;14.376;2024-01-30T04:40:38;6.27;;;4.90;;
17852;SDS011;9052;53.494;14.376;2024-01-30T04:43:05;12.40;;;5.77;;
17852;SDS011;9052;53.494;14.376;2024-01-30T04:45:32;11.43;;;5.70;;
17852;SDS011;9052;53.494;14.376;2024-01-30T04:47:59;9.90;;;6.57;;
17852;SDS011;9052;53.494;14.376;2024-01-30T04:50:26;5.63;;;4.17;;
17852;SDS011;9052;53.494;14.376;2024-01-30T04:52:53;14.60;;;5.00;;
17852;SDS011;9052;53.494;14.376;2024-01-30T04:55:20;8.70;;;4.97;;
17852;SDS011;9052;53.494;14.376;2024-01-30T04:57:48;4.73;;;4.33;;
17852;SDS011;9052;53.494;14.376;2024-01-30T05:00:16;11.30;;;4.97;;
17852;SDS011;9052;53.494;14.376;2024-01-30T05:02:43;4.97;;;4.47;;
17852;SDS011;9052;53.494;14.376;2024-01-30T05:05:10;9.20;;;4.27;;
17852;SDS011;9052;53.494;14.376;2024-01-30T05:07:37;6.77;;;5.60;;
17852;SDS011;9052;53.494;14.376;2024-01-30T05:10:05;11.73;;;4.97;;
17852;SDS011;9052;53.494;14.376;2024-01-30T05:12:33;6.97;;;4.07;;
17852;SDS011;9052;53.494;14.376;2024-01-30T05:15:01;6.57;;;3.97;;
17852;SDS011;9052;53.494;14.376;2024-01-30T05:17:29;7.33;;;4.77;;
17852;SDS011;9052;53.494;14.376;2024-01-30T05:19:56;11.60;;;5.13;;
17852;SDS011;9052;53.494;14.376;2024-01-30T05:22:29;4.57;;;4.13;;
17852;SDS011;9052;53.494;14.376;2024-01-30T05:24:59;19.83;;;4.63;;
17852;SDS011;9052;53.494;14.376;2024-01-30T05:27:26;10.47;;;4.60;;
17852;SDS011;9052;53.494;14.376;2024-01-30T05:29:53;7.10;;;5.70;;
17852;SDS011;9052;53.494;14.376;2024-01-30T05:32:21;8.90;;;4.83;;
17852;SDS011;9052;53.494;14.376;2024-01-30T05:34:50;10.50;;;5.57;;
17852;SDS011;9052;53.494;14.376;2024-01-30T05:37:18;8.53;;;5.83;;
17852;SDS011;9052;53.494;14.376;2024-01-30T05:39:45;10.10;;;6.67;;
17852;SDS011;9052;53.494;14.376;2024-01-30T05:42:13;14.30;;;8.57;;
17852;SDS011;9052;53.494;14.376;2024-01-30T05:44:42;17.47;;;8.50;;
17852;SDS011;9052;53.494;14.376;2024-01-30T05:47:09;20.67;;;7.60;;
17852;SDS011;9052;53.494;14.376;2024-01-30T05:49:39;12.40;;;7.47;;
17852;SDS011;9052;53.494;14.376;2024-01-30T05:52:07;11.53;;;6.57;;
17852;SDS011;9052;53.494;14.376;2024-01-30T05:54:37;18.20;;;8.47;;
17852;SDS011;9052;53.494;14.376;2024-01-30T05:57:05;23.73;;;10.57;;
17852;SDS011;9052;53.494;14.376;2024-01-30T05:59:32;19.50;;;8.70;;
17852;SDS011;9052;53.494;14.376;2024-01-30T06:02:03;19.37;;;8.83;;
17852;SDS011;9052;53.494;14.376;2024-01-30T06:04:30;8.63;;;5.87;;
17852;SDS011;9052;53.494;14.376;2024-01-30T06:06:59;16.97;;;7.03;;
17852;SDS011;9052;53.494;14.376;2024-01-30T06:09:31;15.00;;;7.27;;
17852;SDS011;9052;53.494;14.376;2024-01-30T06:11:58;7.60;;;6.87;;
17852;SDS011;9052;53.494;14.376;2024-01-30T06:14:26;11.27;;;5.90;;
17852;SDS011;9052;53.494;14.376;2024-01-30T06:16:53;8.73;;;6.40;;
17852;SDS011;9052;53.494;14.376;2024-01-30T06:19:20;13.00;;;6.93;;
17852;SDS011;9052;53.494;14.376;2024-01-30T06:21:47;12.70;;;6.50;;
17852;SDS011;9052;53.494;14.376;2024-01-30T06:24:15;9.20;;;4.97;;
17852;SDS011;9052;53.494;14.376;2024-01-30T06:26:43;6.20;;;5.17;;
17852;SDS011;9052;53.494;14.376;2024-01-30T06:29:13;6.10;;;5.50;;
17852;SDS011;9052;53.494;14.376;2024-01-30T06:31:42;5.87;;;5.27;;
17852;SDS011;9052;53.494;14.376;2024-01-30T06:34:09;8.83;;;6.47;;
17852;SDS011;9052;53.494;14.376;2024-01-30T06:36:37;6.67;;;5.90;;
17852;SDS011;9052;53.494;14.376;2024-01-30T06:39:04;9.00;;;5.73;;
17852;SDS011;9052;53.494;14.376;2024-01-30T06:41:33;14.43;;;6.00;;
17852;SDS011;9052;53.494;14.376;2024-01-30T06:44:03;11.37;;;6.70;;
17852;SDS011;9052;53.494;14.376;2024-01-30T06:46:33;10.23;;;7.20;;
17852;SDS011;9052;53.494;14.376;2024-01-30T06:49:00;14.03;;;7.70;;
17852;SDS011;9052;53.494;14.376;2024-01-30T06:51:27;11.20;;;7.60;;
17852;SDS011;9052;53.494;14.376;2024-01-30T06:53:54;11.47;;;6.40;;
17852;SDS011;9052;53.494;14.376;2024-01-30T06:56:21;17.70;;;7.63;;
17852;SDS011;9052;53.494;14.376;2024-01-30T06:58:50;11.27;;;6.80;;
17852;SDS011;9052;53.494;14.376;2024-01-30T07:01:17;14.97;;;5.90;;
17852;SDS011;9052;53.494;14.376;2024-01-30T07:03:44;16.23;;;7.40;;
17852;SDS011;9052;53.494;14.376;2024-01-30T07:06:11;13.43;;;7.43;;
17852;SDS011;9052;53.494;14.376;2024-01-30T07:08:38;13.73;;;6.37;;
17852;SDS011;9052;53.494;14.376;2024-01-30T07:11:05;6.97;;;5.57;;
17852;SDS011;9052;53.494;14.376;2024-01-30T07:13:33;15.70;;;6.20;;
17852;SDS011;9052;53.494;14.376;2024-01-30T07:16:02;6.30;;;5.70;;
17852;SDS011;9052;53.494;14.376;2024-01-30T07:18:30;8.50;;;5.73;;
17852;SDS011;9052;53.494;14.376;2024-01-30T07:20:57;10.30;;;6.67;;
17852;SDS011;9052;53.494;14.376;2024-01-30T07:23:24;17.00;;;7.30;;
17852;SDS011;9052;53.494;14.376;2024-01-30T07:25:51;8.23;;;6.40;;
17852;SDS011;9052;53.494;14.376;2024-01-30T07:28:19;14.43;;;7.90;;
17852;SDS011;9052;53.494;14.376;2024-01-30T07:30:46;8.33;;;6.50;;
17852;SDS011;9052;53.494;14.376;2024-01-30T07:33:15;11.50;;;6.20;;
17852;SDS011;9052;53.494;14.376;2024-01-30T07:35:43;12.33;;;6.13;;
17852;SDS011;9052;53.494;14.376;2024-01-30T07:38:10;12.93;;;6.60;;
17852;SDS011;9052;53.494;14.376;2024-01-30T07:40:37;8.20;;;6.00;;
17852;SDS011;9052;53.494;14.376;2024-01-30T07:43:04;14.27;;;6.60;;
17852;SDS011;9052;53.494;14.376;2024-01-30T07:45:31;14.20;;;8.50;;
17852;SDS011;9052;53.494;14.376;2024-01-30T07:47:59;11.03;;;6.37;;
17852;SDS011;9052;53.494;14.376;2024-01-30T07:50:27;17.83;;;6.60;;
17852;SDS011;9052;53.494;14.376;2024-01-30T07:52:55;9.53;;;6.33;;
17852;SDS011;9052;53.494;14.376;2024-01-30T07:55:22;7.43;;;5.50;;
17852;SDS011;9052;53.494;14.376;2024-01-30T07:57:52;13.47;;;6.13;;
17852;SDS011;9052;53.494;14.376;2024-01-30T08:00:20;12.37;;;4.73;;
17852;SDS011;9052;53.494;14.376;2024-01-30T08:02:47;10.93;;;6.47;;
17852;SDS011;9052;53.494;14.376;2024-01-30T08:05:14;7.87;;;5.93;;
17852;SDS011;9052;53.494;14.376;2024-01-30T08:07:43;13.33;;;6.80;;
17852;SDS011;9052;53.494;14.376;2024-01-30T08:10:11;11.90;;;5.57;;
17852;SDS011;9052;53.494;14.376;2024-01-30T08:12:38;11.97;;;6.70;;
17852;SDS011;9052;53.494;14.376;2024-01-30T08:15:05;12.17;;;5.07;;
17852;SDS011;9052;53.494;14.376;2024-01-30T08:17:33;16.73;;;7.17;;
17852;SDS011;9052;53.494;14.376;2024-01-30T08:20:00;11.30;;;6.57;;
17852;SDS011;9052;53.494;14.376;2024-01-30T08:22:29;9.17;;;6.23;;
17852;SDS011;9052;53.494;14.376;2024-01-30T08:24:58;21.57;;;7.37;;
17852;SDS011;9052;53.494;14.376;2024-01-30T08:27:25;15.30;;;7.77;;
17852;SDS011;9052;53.494;14.376;2024-01-30T08:29:52;8.97;;;5.87;;
17852;SDS011;9052;53.494;14.376;2024-01-30T08:32:19;7.77;;;7.07;;
17852;SDS011;9052;53.494;14.376;2024-01-30T08:34:46;17.83;;;7.67;;
17852;SDS011;9052;53.494;14.376;2024-01-30T08:37:13;12.97;;;7.37;;
17852;SDS011;9052;53.494;14.376;2024-01-30T08:39:41;10.30;;;7.60;;
17852;SDS011;9052;53.494;14.376;2024-01-30T08:42:10;10.20;;;7.40;;
17852;SDS011;9052;53.494;14.376;2024-01-30T08:44:37;13.53;;;6.83;;
17852;SDS011;9052;53.494;14.376;2024-01-30T08:47:04;17.83;;;7.03;;
17852;SDS011;9052;53.494;14.376;2024-01-30T08:49:32;9.07;;;6.30;;
17852;SDS011;9052;53.494;14.376;2024-01-30T08:51:59;14.70;;;7.43;;
17852;SDS011;9052;53.494;14.376;2024-01-30T08:54:26;14.13;;;9.13;;
17852;SDS011;9052;53.494;14.376;2024-01-30T08:56:53;13.67;;;7.67;;
17852;SDS011;9052;53.494;14.376;2024-01-30T08:59:23;9.97;;;6.90;;
17852;SDS011;9052;53.494;14.376;2024-01-30T09:01:50;10.60;;;8.00;;
17852;SDS011;9052;53.494;14.376;2024-01-30T09:04:20;11.50;;;6.80;;
17852;SDS011;9052;53.494;14.376;2024-01-30T09:06:47;15.50;;;7.43;;
17852;SDS011;9052;53.494;14.376;2024-01-30T09:09:15;15.40;;;7.60;;
17852;SDS011;9052;53.494;14.376;2024-01-30T09:11:42;15.40;;;7.70;;
17852;SDS011;9052;53.494;14.376;2024-01-30T09:14:09;23.00;;;6.53;;
17852;SDS011;9052;53.494;14.376;2024-01-30T09:16:38;8.70;;;7.37;;
17852;SDS011;9052;53.494;14.376;2024-01-30T09:19:05;12.87;;;6.80;;
17852;SDS011;9052;53.494;14.376;2024-01-30T09:21:32;23.90;;;7.50;;
17852;SDS011;9052;53.494;14.376;2024-01-30T09:24:01;14.27;;;8.00;;
17852;SDS011;9052;53.494;14.376;2024-01-30T09:26:29;6.47;;;5.70;;
17852;SDS011;9052;53.494;14.376;2024-01-30T09:28:56;12.03;;;6.13;;
17852;SDS011;9052;53.494;14.376;2024-01-30T09:31:23;12.17;;;7.27;;
17852;SDS011;9052;53.494;14.376;2024-01-30T09:33:52;9.87;;;6.67;;
17852;SDS011;9052;53.494;14.376;2024-01-30T09:36:19;22.87;;;7.90;;
17852;SDS011;9052;53.494;14.376;2024-01-30T09:38:47;10.57;;;6.73;;
17852;SDS011;9052;53.494;14.376;2024-01-30T09:41:14;11.03;;;6.77;;
17852;SDS011;9052;53.494;14.376;2024-01-30T09:43:41;12.30;;;8.10;;
17852;SDS011;9052;53.494;14.376;2024-01-30T09:46:10;9.30;;;7.17;;
17852;SDS011;9052;53.494;14.376;2024-01-30T09:48:39;8.17;;;6.57;;
17852;SDS011;9052;53.494;14.376;2024-01-30T09:51:09;10.33;;;6.70;;
17852;SDS011;9052;53.494;14.376;2024-01-30T09:53:37;10.43;;;6.87;;
17852;SDS011;9052;53.494;14.376;2024-01-30T09:56:04;11.83;;;6.97;;
17852;SDS011;9052;53.494;14.376;2024-01-30T09:58:33;13.60;;;6.87;;
17852;SDS011;9052;53.494;14.376;2024-01-30T10:01:00;8.50;;;6.53;;
17852;SDS011;9052;53.494;14.376;2024-01-30T10:03:27;15.80;;;7.37;;
17852;SDS011;9052;53.494;14.376;2024-01-30T10:05:54;10.73;;;6.43;;
17852;SDS011;9052;53.494;14.376;2024-01-30T10:08:23;10.60;;;6.57;;
17852;SDS011;9052;53.494;14.376;2024-01-30T10:10:50;7.60;;;6.43;;
17852;SDS011;9052;53.494;14.376;2024-01-30T10:13:17;9.00;;;7.83;;
17852;SDS011;9052;53.494;14.376;2024-01-30T10:15:44;12.00;;;7.00;;
17852;SDS011;9052;53.494;14.376;2024-01-30T10:18:11;11.43;;;7.37;;
17852;SDS011;9052;53.494;14.376;2024-01-30T10:20:38;9.70;;;7.30;;
17852;SDS011;9052;53.494;14.376;2024-01-30T10:23:05;11.87;;;6.73;;
17852;SDS011;9052;53.494;14.376;2024-01-30T10:25:34;12.70;;;6.67;;
17852;SDS011;9052;53.494;14.376;2024-01-30T10:28:02;8.87;;;6.57;;
17852;SDS011;9052;53.494;14.376;2024-01-30T10:30:29;13.43;;;6.27;;
17852;SDS011;9052;53.494;14.376;2024-01-30T10:32:56;15.13;;;7.87;;
17852;SDS011;9052;53.494;14.376;2024-01-30T10:35:23;11.27;;;8.03;;
17852;SDS011;9052;53.494;14.376;2024-01-30T10:37:50;13.57;;;8.20;;
17852;SDS011;9052;53.494;14.376;2024-01-30T10:40:20;15.53;;;7.63;;
17852;SDS011;9052;53.494;14.376;2024-01-30T10:42:49;10.47;;;6.77;;
17852;SDS011;9052;53.494;14.376;2024-01-30T10:45:20;9.60;;;7.60;;
17852;SDS011;9052;53.494;14.376;2024-01-30T10:47:49;9.90;;;7.10;;
17852;SDS011;9052;53.494;14.376;2024-01-30T10:50:16;8.43;;;7.40;;
17852;SDS011;9052;53.494;14.376;2024-01-30T10:52:44;12.87;;;7.27;;
17852;SDS011;9052;53.494;14.376;2024-01-30T10:55:11;11.23;;;6.37;;
17852;SDS011;9052;53.494;14.376;2024-01-30T10:57:39;8.00;;;6.47;;
17852;SDS011;9052;53.494;14.376;2024-01-30T11:00:08;10.60;;;7.87;;
17852;SDS011;9052;53.494;14.376;2024-01-30T11:02:37;23.13;;;7.37;;
17852;SDS011;9052;53.494;14.376;2024-01-30T11:05:05;9.03;;;7.63;;
17852;SDS011;9052;53.494;14.376;2024-01-30T11:07:33;10.40;;;7.50;;
17852;SDS011;9052;53.494;14.376;2024-01-30T11:10:01;15.47;;;8.77;;
17852;SDS011;9052;53.494;14.376;2024-01-30T11:12:29;11.83;;;7.73;;
17852;SDS011;9052;53.494;14.376;2024-01-30T11:15:05;11.73;;;7.90;;
17852;SDS011;9052;53.494;14.376;2024-01-30T11:17:45;12.10;;;7.77;;
17852;SDS011;9052;53.494;14.376;2024-01-30T11:20:19;11.17;;;7.20;;
17852;SDS011;9052;53.494;14.376;2024-01-30T11:22:47;11.00;;;7.30;;
17852;SDS011;9052;53.494;14.376;2024-01-30T11:25:15;10.60;;;7.13;;
17852;SDS011;9052;53.494;14.376;2024-01-30T11:27:43;11.80;;;7.60;;
17852;SDS011;9052;53.494;14.376;2024-01-30T11:30:10;12.07;;;7.93;;
17852;SDS011;9052;53.494;14.376;2024-01-30T11:32:58;10.83;;;6.13;;
17852;SDS011;9052;53.494;14.376;2024-01-30T11:35:30;11.47;;;8.00;;
17852;SDS011;9052;53.494;14.376;2024-01-30T11:37:59;11.57;;;7.20;;
17852;SDS011;9052;53.494;14.376;2024-01-30T11:40:26;10.90;;;7.27;;
17852;SDS011;9052;53.494;14.376;2024-01-30T11:42:54;11.10;;;6.30;;
17852;SDS011;9052;53.494;14.376;2024-01-30T11:45:21;13.10;;;7.20;;
17852;SDS011;9052;53.494;14.376;2024-01-30T11:47:48;10.70;;;6.97;;
17852;SDS011;9052;53.494;14.376;2024-01-30T11:50:17;9.90;;;6.70;;
17852;SDS011;9052;53.494;14.376;2024-01-30T11:52:44;12.30;;;7.50;;
17852;SDS011;9052;53.494;14.376;2024-01-30T11:55:11;13.53;;;6.20;;
17852;SDS011;9052;53.494;14.376;2024-01-30T11:57:39;9.43;;;7.60;;
17852;SDS011;9052;53.494;14.376;2024-01-30T12:00:06;11.57;;;8.33;;
17852;SDS011;9052;53.494;14.376;2024-01-30T12:02:40;12.97;;;7.97;;
17852;SDS011;9052;53.494;14.376;2024-01-30T12:05:07;18.20;;;8.07;;
17852;SDS011;9052;53.494;14.376;2024-01-30T12:07:36;13.40;;;8.20;;
17852;SDS011;9052;53.494;14.376;2024-01-30T12:10:03;16.70;;;9.43;;
17852;SDS011;9052;53.494;14.376;2024-01-30T12:12:33;13.60;;;7.47;;
17852;SDS011;9052;53.494;14.376;2024-01-30T12:15:00;11.50;;;7.93;;
17852;SDS011;9052;53.494;14.376;2024-01-30T12:17:29;20.63;;;7.30;;
17852;SDS011;9052;53.494;14.376;2024-01-30T12:20:04;17.73;;;6.83;;
17852;SDS011;9052;53.494;14.376;2024-01-30T12:22:33;12.97;;;7.43;;
17852;SDS011;9052;53.494;14.376;2024-01-30T12:25:05;14.87;;;7.10;;
17852;SDS011;9052;53.494;14.376;2024-01-30T12:27:33;10.47;;;7.77;;
17852;SDS011;9052;53.494;14.376;2024-01-30T12:30:00;13.90;;;8.97;;
17852;SDS011;9052;53.494;14.376;2024-01-30T12:32:29;15.33;;;8.40;;
17852;SDS011;9052;53.494;14.376;2024-01-30T12:34:56;15.00;;;7.70;;
17852;SDS011;9052;53.494;14.376;2024-01-30T12:37:23;10.80;;;7.47;;
17852;SDS011;9052;53.494;14.376;2024-01-30T12:39:52;13.60;;;8.40;;
17852;SDS011;9052;53.494;14.376;2024-01-30T12:42:20;12.63;;;7.80;;
17852;SDS011;9052;53.494;14.376;2024-01-30T12:44:47;9.77;;;6.77;;
17852;SDS011;9052;53.494;14.376;2024-01-30T12:47:14;11.03;;;7.40;;
17852;SDS011;9052;53.494;14.376;2024-01-30T12:49:42;7.87;;;7.07;;
17852;SDS011;9052;53.494;14.376;2024-01-30T12:52:09;21.43;;;8.53;;
17852;SDS011;9052;53.494;14.376;2024-01-30T12:54:36;10.80;;;7.60;;
17852;SDS011;9052;53.494;14.376;2024-01-30T12:57:05;17.87;;;9.50;;
17852;SDS011;9052;53.494;14.376;2024-01-30T12:59:33;11.80;;;8.97;;
17852;SDS011;9052;53.494;14.376;2024-01-30T13:02:00;8.60;;;6.70;;
17852;SDS011;9052;53.494;14.376;2024-01-30T13:04:28;12.50;;;7.30;;
17852;SDS011;9052;53.494;14.376;2024-01-30T13:06:55;17.77;;;7.90;;
17852;SDS011;9052;53.494;14.376;2024-01-30T13:09:23;16.20;;;7.97;;
17852;SDS011;9052;53.494;14.376;2024-01-30T13:11:50;10.90;;;7.10;;
17852;SDS011;9052;53.494;14.376;2024-01-30T13:14:18;13.00;;;7.40;;
17852;SDS011;9052;53.494;14.376;2024-01-30T13:16:46;11.80;;;7.93;;
17852;SDS011;9052;53.494;14.376;2024-01-30T13:19:13;16.23;;;7.83;;
17852;SDS011;9052;53.494;14.376;2024-01-30T13:21:41;9.03;;;7.03;;
17852;SDS011;9052;53.494;14.376;2024-01-30T13:24:08;19.73;;;7.10;;
17852;SDS011;9052;53.494;14.376;2024-01-30T13:26:35;9.73;;;7.13;;
17852;SDS011;9052;53.494;14.376;2024-01-30T13:29:02;11.97;;;7.90;;
17852;SDS011;9052;53.494;14.376;2024-01-30T13:31:31;16.10;;;8.47;;
17852;SDS011;9052;53.494;14.376;2024-01-30T13:33:58;17.00;;;7.90;;
17852;SDS011;9052;53.494;14.376;2024-01-30T13:36:25;7.37;;;5.53;;
17852;SDS011;9052;53.494;14.376;2024-01-30T13:38:52;11.20;;;8.03;;
17852;SDS011;9052;53.494;14.376;2024-01-30T13:41:19;11.67;;;6.70;;
17852;SDS011;9052;53.494;14.376;2024-01-30T13:43:48;9.53;;;7.20;;
17852;SDS011;9052;53.494;14.376;2024-01-30T13:46:15;10.57;;;6.90;;
17852;SDS011;9052;53.494;14.376;2024-01-30T13:48:43;14.70;;;6.37;;
17852;SDS011;9052;53.494;14.376;2024-01-30T13:51:10;12.00;;;6.97;;
17852;SDS011;9052;53.494;14.376;2024-01-30T13:53:38;13.10;;;7.10;;
17852;SDS011;9052;53.494;14.376;2024-01-30T13:56:06;20.30;;;8.57;;
17852;SDS011;9052;53.494;14.376;2024-01-30T13:58:33;8.63;;;6.87;;
17852;SDS011;9052;53.494;14.376;2024-01-30T14:01:01;10.73;;;7.23;;
17852;SDS011;9052;53.494;14.376;2024-01-30T14:03:28;15.43;;;8.37;;
17852;SDS011;9052;53.494;14.376;2024-01-30T14:05:57;13.33;;;7.30;;
17852;SDS011;9052;53.494;14.376;2024-01-30T14:08:24;9.83;;;7.43;;
17852;SDS011;9052;53.494;14.376;2024-01-30T14:10:53;7.87;;;5.97;;
17852;SDS011;9052;53.494;14.376;2024-01-30T14:13:20;8.80;;;6.07;;
17852;SDS011;9052;53.494;14.376;2024-01-30T14:15:48;11.97;;;7.73;;
17852;SDS011;9052;53.494;14.376;2024-01-30T14:18:15;23.13;;;7.50;;
17852;SDS011;9052;53.494;14.376;2024-01-30T14:20:42;14.43;;;7.47;;
17852;SDS011;9052;53.494;14.376;2024-01-30T14:23:10;8.77;;;6.50;;
17852;SDS011;9052;53.494;14.376;2024-01-30T14:25:38;8.40;;;6.83;;
17852;SDS011;9052;53.494;14.376;2024-01-30T14:28:05;10.70;;;6.33;;
17852;SDS011;9052;53.494;14.376;2024-01-30T14:30:32;9.97;;;6.13;;
17852;SDS011;9052;53.494;14.376;2024-01-30T14:33:00;11.00;;;6.53;;
17852;SDS011;9052;53.494;14.376;2024-01-30T14:35:28;12.33;;;6.73;;
17852;SDS011;9052;53.494;14.376;2024-01-30T14:37:56;7.80;;;6.60;;
17852;SDS011;9052;53.494;14.376;2024-01-30T14:40:25;9.53;;;6.40;;
17852;SDS011;9052;53.494;14.376;2024-01-30T14:42:52;6.47;;;5.60;;